sensor_id;sensor_type;location;lat;lon;timestamp;P1;durP1;ratioP1;P2;durP2;ratioP2
9304;SDS011;4690;52.422;13.486;2023-07-16T00:04:41;7.30;;;4.60;;
9304;SDS011;4690;52.422;13.486;2023-07-16T00:07:07;4.50;;;4.13;;
9304;SDS011;4690;52.422;13.486;2023-07-16T00:09:32;4.72;;;4.30;;
9304;SDS011;4690;52.422;13.486;2023-07-16T00:11:58;5.72;;;4.57;;
9304;SDS011;4690;52.422;13.486;2023-07-16T00:14:24;4.65;;;4.25;;
9304;SDS011;4690;52.422;13.486;2023-07-16T00:16:49;5.40;;;4.18;;
9304;SDS011;4690;52.422;13.486;2023-07-16T00:19:15;5.05;;;4.55;;
9304;SDS011;4690;52.422;13.486;2023-07-16T00:21:41;4.60;;;4.20;;
9304;SDS011;4690;52.422;13.486;2023-07-16T00:24:07;4.60;;;4.30;;
9304;SDS011;4690;52.422;13.486;2023-07-16T00:26:33;4.90;;;4.28;;
9304;SDS011;4690;52.422;13.486;2023-07-16T00:28:58;5.03;;;4.53;;
9304;SDS011;4690;52.422;13.486;2023-07-16T00:31:24;4.95;;;4.55;;
9304;SDS011;4690;52.422;13.486;2023-07-16T00:33:50;4.60;;;4.20;;
9304;SDS011;4690;52.422;13.486;2023-07-16T00:36:16;4.78;;;4.43;;
9304;SDS011;4690;52.422;13.486;2023-07-16T00:38:41;4.90;;;4.50;;
9304;SDS011;4690;52.422;13.486;2023-07-16T00:41:07;4.90;;;4.50;;
9304;SDS011;4690;52.422;13.486;2023-07-16T00:43:33;5.05;;;4.65;;
9304;SDS011;4690;52.422;13.486;2023-07-16T00:45:59;5.38;;;4.75;;
9304;SDS011;4690;52.422;13.486;2023-07-16T00:48:25;5.97;;;4.95;;
9304;SDS011;4690;52.422;13.486;2023-07-16T00:50:52;5.13;;;4.63;;
9304;SDS011;4690;52.422;13.486;2023-07-16T00:53:19;4.95;;;4.55;;
9304;SDS011;4690;52.422;13.486;2023-07-16T00:55:45;5.20;;;4.80;;
9304;SDS011;4690;52.422;13.486;2023-07-16T00:58:11;5.50;;;4.55;;
9304;SDS011;4690;52.422;13.486;2023-07-16T01:00:38;7.88;;;5.30;;
9304;SDS011;4690;52.422;13.486;2023-07-16T01:03:06;5.80;;;5.20;;
9304;SDS011;4690;52.422;13.486;2023-07-16T01:11:14;9.98;;;7.25;;
9304;SDS011;4690;52.422;13.486;2023-07-16T01:13:41;8.90;;;6.88;;
9304;SDS011;4690;52.422;13.486;2023-07-16T01:16:17;8.13;;;7.32;;
9304;SDS011;4690;52.422;13.486;2023-07-16T01:18:48;9.43;;;7.32;;
9304;SDS011;4690;52.422;13.486;2023-07-16T01:21:16;13.43;;;8.32;;
9304;SDS011;4690;52.422;13.486;2023-07-16T01:30:01;10.65;;;9.57;;
9304;SDS011;4690;52.422;13.486;2023-07-16T01:32:34;10.15;;;9.20;;
9304;SDS011;4690;52.422;13.486;2023-07-16T01:35:03;10.40;;;9.40;;
9304;SDS011;4690;52.422;13.486;2023-07-16T01:37:31;11.23;;;9.75;;
9304;SDS011;4690;52.422;13.486;2023-07-16T01:39:57;9.73;;;8.43;;
9304;SDS011;4690;52.422;13.486;2023-07-16T01:42:24;9.85;;;8.18;;
9304;SDS011;4690;52.422;13.486;2023-07-16T01:44:49;10.50;;;9.40;;
9304;SDS011;4690;52.422;13.486;2023-07-16T01:47:23;10.10;;;9.02;;
9304;SDS011;4690;52.422;13.486;2023-07-16T01:50:25;9.80;;;7.93;;
9304;SDS011;4690;52.422;13.486;2023-07-16T01:52:51;9.00;;;8.20;;
9304;SDS011;4690;52.422;13.486;2023-07-16T01:55:16;9.00;;;7.60;;
9304;SDS011;4690;52.422;13.486;2023-07-16T01:57:42;8.45;;;7.65;;
9304;SDS011;4690;52.422;13.486;2023-07-16T02:00:08;9.13;;;7.00;;
9304;SDS011;4690;52.422;13.486;2023-07-16T02:02:35;12.23;;;7.18;;
9304;SDS011;4690;52.422;13.486;2023-07-16T02:05:01;7.53;;;6.85;;
9304;SDS011;4690;52.422;13.486;2023-07-16T02:07:28;7.88;;;6.13;;
9304;SDS011;4690;52.422;13.486;2023-07-16T02:09:54;8.52;;;6.43;;
9304;SDS011;4690;52.422;13.486;2023-07-16T02:12:19;6.35;;;5.75;;
9304;SDS011;4690;52.422;13.486;2023-07-16T02:14:45;6.28;;;5.47;;
9304;SDS011;4690;52.422;13.486;2023-07-16T02:17:11;10.40;;;5.60;;
9304;SDS011;4690;52.422;13.486;2023-07-16T02:19:36;8.40;;;5.40;;
9304;SDS011;4690;52.422;13.486;2023-07-16T02:22:02;5.45;;;4.43;;
9304;SDS011;4690;52.422;13.486;2023-07-16T02:24:28;4.80;;;4.20;;
9304;SDS011;4690;52.422;13.486;2023-07-16T02:26:54;5.28;;;4.32;;
9304;SDS011;4690;52.422;13.486;2023-07-16T02:29:19;7.57;;;4.00;;
9304;SDS011;4690;52.422;13.486;2023-07-16T02:31:45;6.13;;;3.72;;
9304;SDS011;4690;52.422;13.486;2023-07-16T02:34:13;3.95;;;3.45;;
9304;SDS011;4690;52.422;13.486;2023-07-16T02:36:39;4.03;;;3.63;;
9304;SDS011;4690;52.422;13.486;2023-07-16T02:39:05;3.92;;;3.50;;
9304;SDS011;4690;52.422;13.486;2023-07-16T02:41:30;3.50;;;3.25;;
9304;SDS011;4690;52.422;13.486;2023-07-16T02:44:00;3.70;;;3.40;;
9304;SDS011;4690;52.422;13.486;2023-07-16T02:46:28;5.47;;;3.40;;
9304;SDS011;4690;52.422;13.486;2023-07-16T02:48:54;3.65;;;3.35;;
9304;SDS011;4690;52.422;13.486;2023-07-16T02:51:20;3.60;;;3.30;;
9304;SDS011;4690;52.422;13.486;2023-07-16T02:53:46;4.03;;;3.65;;
9304;SDS011;4690;52.422;13.486;2023-07-16T02:56:11;4.15;;;3.65;;
9304;SDS011;4690;52.422;13.486;2023-07-16T02:58:37;5.88;;;3.80;;
9304;SDS011;4690;52.422;13.486;2023-07-16T03:01:03;4.13;;;3.75;;
9304;SDS011;4690;52.422;13.486;2023-07-16T03:03:29;5.45;;;3.92;;
9304;SDS011;4690;52.422;13.486;2023-07-16T03:05:54;4.13;;;3.63;;
9304;SDS011;4690;52.422;13.486;2023-07-16T03:08:20;4.10;;;3.65;;
9304;SDS011;4690;52.422;13.486;2023-07-16T03:10:47;3.80;;;3.40;;
9304;SDS011;4690;52.422;13.486;2023-07-16T03:13:13;3.90;;;3.60;;
9304;SDS011;4690;52.422;13.486;2023-07-16T03:15:39;4.07;;;3.70;;
9304;SDS011;4690;52.422;13.486;2023-07-16T03:18:04;3.30;;;3.10;;
9304;SDS011;4690;52.422;13.486;2023-07-16T03:20:30;5.00;;;3.67;;
9304;SDS011;4690;52.422;13.486;2023-07-16T03:22:56;3.50;;;3.20;;
9304;SDS011;4690;52.422;13.486;2023-07-16T03:25:21;3.80;;;3.50;;
9304;SDS011;4690;52.422;13.486;2023-07-16T03:27:47;3.90;;;3.60;;
9304;SDS011;4690;52.422;13.486;2023-07-16T03:30:13;3.90;;;3.60;;
9304;SDS011;4690;52.422;13.486;2023-07-16T03:32:39;4.90;;;3.70;;
9304;SDS011;4690;52.422;13.486;2023-07-16T03:35:04;4.63;;;3.88;;
9304;SDS011;4690;52.422;13.486;2023-07-16T03:37:30;6.18;;;4.15;;
9304;SDS011;4690;52.422;13.486;2023-07-16T03:39:56;4.18;;;3.78;;
9304;SDS011;4690;52.422;13.486;2023-07-16T03:42:37;4.47;;;4.07;;
9304;SDS011;4690;52.422;13.486;2023-07-16T03:45:03;6.15;;;4.15;;
9304;SDS011;4690;52.422;13.486;2023-07-16T03:47:30;3.88;;;3.47;;
9304;SDS011;4690;52.422;13.486;2023-07-16T03:49:55;4.25;;;3.85;;
9304;SDS011;4690;52.422;13.486;2023-07-16T03:52:21;4.13;;;3.83;;
9304;SDS011;4690;52.422;13.486;2023-07-16T03:54:47;5.03;;;4.60;;
9304;SDS011;4690;52.422;13.486;2023-07-16T03:57:12;6.32;;;5.00;;
9304;SDS011;4690;52.422;13.486;2023-07-16T03:59:38;4.65;;;4.25;;
9304;SDS011;4690;52.422;13.486;2023-07-16T04:02:04;5.80;;;4.82;;
9304;SDS011;4690;52.422;13.486;2023-07-16T04:04:30;5.40;;;4.90;;
9304;SDS011;4690;52.422;13.486;2023-07-16T04:06:55;5.70;;;5.20;;
9304;SDS011;4690;52.422;13.486;2023-07-16T04:09:21;10.43;;;5.78;;
9304;SDS011;4690;52.422;13.486;2023-07-16T04:11:47;6.10;;;5.55;;
9304;SDS011;4690;52.422;13.486;2023-07-16T04:14:13;7.90;;;6.30;;
9304;SDS011;4690;52.422;13.486;2023-07-16T04:16:38;6.72;;;6.10;;
9304;SDS011;4690;52.422;13.486;2023-07-16T04:19:04;7.53;;;6.80;;
9304;SDS011;4690;52.422;13.486;2023-07-16T04:21:30;9.20;;;8.25;;
9304;SDS011;4690;52.422;13.486;2023-07-16T04:23:56;7.65;;;7.03;;
9304;SDS011;4690;52.422;13.486;2023-07-16T04:26:21;12.85;;;11.35;;
9304;SDS011;4690;52.422;13.486;2023-07-16T04:28:47;11.57;;;9.32;;
9304;SDS011;4690;52.422;13.486;2023-07-16T04:31:13;10.35;;;8.57;;
9304;SDS011;4690;52.422;13.486;2023-07-16T04:33:39;9.18;;;8.20;;
9304;SDS011;4690;52.422;13.486;2023-07-16T04:36:05;10.10;;;8.00;;
9304;SDS011;4690;52.422;13.486;2023-07-16T04:38:30;10.10;;;8.02;;
9304;SDS011;4690;52.422;13.486;2023-07-16T04:40:56;7.60;;;6.80;;
9304;SDS011;4690;52.422;13.486;2023-07-16T04:43:22;7.05;;;6.47;;
9304;SDS011;4690;52.422;13.486;2023-07-16T04:45:47;8.43;;;7.53;;
9304;SDS011;4690;52.422;13.486;2023-07-16T04:48:13;7.97;;;6.50;;
9304;SDS011;4690;52.422;13.486;2023-07-16T04:50:39;7.78;;;6.97;;
9304;SDS011;4690;52.422;13.486;2023-07-16T04:53:05;7.07;;;6.38;;
9304;SDS011;4690;52.422;13.486;2023-07-16T04:55:37;7.15;;;6.55;;
9304;SDS011;4690;52.422;13.486;2023-07-16T04:58:04;7.65;;;6.80;;
9304;SDS011;4690;52.422;13.486;2023-07-16T05:00:33;7.50;;;6.80;;
9304;SDS011;4690;52.422;13.486;2023-07-16T05:02:59;6.57;;;5.97;;
9304;SDS011;4690;52.422;13.486;2023-07-16T05:05:25;6.70;;;6.00;;
9304;SDS011;4690;52.422;13.486;2023-07-16T05:07:52;6.38;;;5.88;;
9304;SDS011;4690;52.422;13.486;2023-07-16T05:10:18;6.68;;;5.88;;
9304;SDS011;4690;52.422;13.486;2023-07-16T05:12:43;7.68;;;5.82;;
9304;SDS011;4690;52.422;13.486;2023-07-16T05:15:09;9.95;;;6.13;;
9304;SDS011;4690;52.422;13.486;2023-07-16T05:17:35;7.35;;;5.82;;
9304;SDS011;4690;52.422;13.486;2023-07-16T05:20:01;8.27;;;5.93;;
9304;SDS011;4690;52.422;13.486;2023-07-16T05:22:27;6.85;;;6.25;;
9304;SDS011;4690;52.422;13.486;2023-07-16T05:24:53;5.93;;;5.38;;
9304;SDS011;4690;52.422;13.486;2023-07-16T05:27:19;6.40;;;5.60;;
9304;SDS011;4690;52.422;13.486;2023-07-16T05:29:45;7.05;;;5.60;;
9304;SDS011;4690;52.422;13.486;2023-07-16T05:32:10;5.97;;;5.28;;
9304;SDS011;4690;52.422;13.486;2023-07-16T05:34:36;6.18;;;5.55;;
9304;SDS011;4690;52.422;13.486;2023-07-16T05:37:02;5.53;;;4.97;;
9304;SDS011;4690;52.422;13.486;2023-07-16T05:39:28;5.93;;;5.32;;
9304;SDS011;4690;52.422;13.486;2023-07-16T05:41:54;7.18;;;5.40;;
9304;SDS011;4690;52.422;13.486;2023-07-16T05:44:19;8.45;;;5.25;;
9304;SDS011;4690;52.422;13.486;2023-07-16T05:46:45;5.38;;;4.97;;
9304;SDS011;4690;52.422;13.486;2023-07-16T05:49:11;5.57;;;5.07;;
9304;SDS011;4690;52.422;13.486;2023-07-16T05:51:36;5.65;;;5.10;;
9304;SDS011;4690;52.422;13.486;2023-07-16T05:54:02;5.75;;;5.25;;
9304;SDS011;4690;52.422;13.486;2023-07-16T05:56:28;5.50;;;5.00;;
9304;SDS011;4690;52.422;13.486;2023-07-16T05:58:54;5.53;;;4.97;;
9304;SDS011;4690;52.422;13.486;2023-07-16T06:01:21;7.90;;;5.20;;
9304;SDS011;4690;52.422;13.486;2023-07-16T06:03:47;5.95;;;5.10;;
9304;SDS011;4690;52.422;13.486;2023-07-16T06:06:13;6.05;;;5.00;;
9304;SDS011;4690;52.422;13.486;2023-07-16T06:08:38;7.20;;;5.20;;
9304;SDS011;4690;52.422;13.486;2023-07-16T06:11:04;6.50;;;4.80;;
9304;SDS011;4690;52.422;13.486;2023-07-16T06:13:30;6.85;;;5.20;;
9304;SDS011;4690;52.422;13.486;2023-07-16T06:15:56;5.28;;;4.78;;
9304;SDS011;4690;52.422;13.486;2023-07-16T06:18:22;4.93;;;4.53;;
9304;SDS011;4690;52.422;13.486;2023-07-16T06:20:48;5.18;;;4.43;;
9304;SDS011;4690;52.422;13.486;2023-07-16T06:23:15;5.72;;;4.65;;
9304;SDS011;4690;52.422;13.486;2023-07-16T06:25:42;6.47;;;4.43;;
9304;SDS011;4690;52.422;13.486;2023-07-16T06:28:11;5.00;;;4.50;;
9304;SDS011;4690;52.422;13.486;2023-07-16T06:30:37;4.82;;;4.43;;
9304;SDS011;4690;52.422;13.486;2023-07-16T06:33:04;7.05;;;4.40;;
9304;SDS011;4690;52.422;13.486;2023-07-16T06:35:29;5.97;;;4.30;;
9304;SDS011;4690;52.422;13.486;2023-07-16T06:37:55;5.38;;;4.72;;
9304;SDS011;4690;52.422;13.486;2023-07-16T06:40:21;4.97;;;4.47;;
9304;SDS011;4690;52.422;13.486;2023-07-16T06:42:46;4.95;;;4.30;;
9304;SDS011;4690;52.422;13.486;2023-07-16T06:45:12;4.72;;;4.25;;
9304;SDS011;4690;52.422;13.486;2023-07-16T06:47:38;5.07;;;4.00;;
9304;SDS011;4690;52.422;13.486;2023-07-16T06:50:04;5.03;;;4.25;;
9304;SDS011;4690;52.422;13.486;2023-07-16T06:52:30;5.80;;;4.07;;
9304;SDS011;4690;52.422;13.486;2023-07-16T06:54:56;5.80;;;4.40;;
9304;SDS011;4690;52.422;13.486;2023-07-16T06:57:23;4.75;;;4.30;;
9304;SDS011;4690;52.422;13.486;2023-07-16T06:59:48;4.57;;;4.20;;
9304;SDS011;4690;52.422;13.486;2023-07-16T07:02:17;4.03;;;3.72;;
9304;SDS011;4690;52.422;13.486;2023-07-16T07:04:44;4.22;;;3.83;;
9304;SDS011;4690;52.422;13.486;2023-07-16T07:07:09;4.80;;;3.70;;
9304;SDS011;4690;52.422;13.486;2023-07-16T07:09:35;5.00;;;3.45;;
9304;SDS011;4690;52.422;13.486;2023-07-16T07:12:01;3.88;;;3.30;;
9304;SDS011;4690;52.422;13.486;2023-07-16T07:14:27;7.45;;;3.65;;
9304;SDS011;4690;52.422;13.486;2023-07-16T07:16:53;5.75;;;3.50;;
9304;SDS011;4690;52.422;13.486;2023-07-16T07:19:19;4.53;;;3.72;;
9304;SDS011;4690;52.422;13.486;2023-07-16T07:21:45;7.57;;;3.92;;
9304;SDS011;4690;52.422;13.486;2023-07-16T07:24:10;3.80;;;3.50;;
9304;SDS011;4690;52.422;13.486;2023-07-16T07:26:37;3.80;;;3.50;;
9304;SDS011;4690;52.422;13.486;2023-07-16T07:29:03;4.80;;;3.90;;
9304;SDS011;4690;52.422;13.486;2023-07-16T07:31:29;6.60;;;3.72;;
9304;SDS011;4690;52.422;13.486;2023-07-16T07:33:54;5.75;;;3.60;;
9304;SDS011;4690;52.422;13.486;2023-07-16T07:36:22;3.80;;;3.50;;
9304;SDS011;4690;52.422;13.486;2023-07-16T07:38:48;5.20;;;3.38;;
9304;SDS011;4690;52.422;13.486;2023-07-16T07:41:14;3.88;;;3.58;;
9304;SDS011;4690;52.422;13.486;2023-07-16T07:43:39;3.63;;;3.30;;
9304;SDS011;4690;52.422;13.486;2023-07-16T07:46:05;4.70;;;3.65;;
9304;SDS011;4690;52.422;13.486;2023-07-16T07:48:31;3.90;;;3.60;;
9304;SDS011;4690;52.422;13.486;2023-07-16T07:50:57;5.07;;;3.63;;
9304;SDS011;4690;52.422;13.486;2023-07-16T07:53:23;6.32;;;3.60;;
9304;SDS011;4690;52.422;13.486;2023-07-16T07:55:48;4.55;;;3.63;;
9304;SDS011;4690;52.422;13.486;2023-07-16T07:58:14;4.38;;;3.75;;
9304;SDS011;4690;52.422;13.486;2023-07-16T08:00:40;5.20;;;3.65;;
9304;SDS011;4690;52.422;13.486;2023-07-16T08:03:06;3.45;;;3.10;;
9304;SDS011;4690;52.422;13.486;2023-07-16T08:05:31;3.50;;;3.20;;
9304;SDS011;4690;52.422;13.486;2023-07-16T08:07:58;3.58;;;3.28;;
9304;SDS011;4690;52.422;13.486;2023-07-16T08:10:24;4.70;;;3.00;;
9304;SDS011;4690;52.422;13.486;2023-07-16T08:12:50;4.93;;;3.20;;
9304;SDS011;4690;52.422;13.486;2023-07-16T08:15:17;4.03;;;3.13;;
9304;SDS011;4690;52.422;13.486;2023-07-16T08:17:43;6.05;;;3.40;;
9304;SDS011;4690;52.422;13.486;2023-07-16T08:20:10;3.72;;;3.15;;
9304;SDS011;4690;52.422;13.486;2023-07-16T08:22:37;3.58;;;3.20;;
9304;SDS011;4690;52.422;13.486;2023-07-16T08:25:04;3.70;;;3.38;;
9304;SDS011;4690;52.422;13.486;2023-07-16T08:27:31;4.28;;;3.08;;
9304;SDS011;4690;52.422;13.486;2023-07-16T08:29:57;5.53;;;3.42;;
9304;SDS011;4690;52.422;13.486;2023-07-16T08:32:23;3.20;;;2.90;;
9304;SDS011;4690;52.422;13.486;2023-07-16T08:34:49;6.97;;;2.95;;
9304;SDS011;4690;52.422;13.486;2023-07-16T08:37:14;4.10;;;2.55;;
9304;SDS011;4690;52.422;13.486;2023-07-16T08:39:40;4.80;;;2.50;;
9304;SDS011;4690;52.422;13.486;2023-07-16T08:42:06;3.92;;;2.50;;
9304;SDS011;4690;52.422;13.486;2023-07-16T08:44:37;3.03;;;2.70;;
9304;SDS011;4690;52.422;13.486;2023-07-16T08:47:05;3.28;;;2.42;;
9304;SDS011;4690;52.422;13.486;2023-07-16T08:49:34;3.15;;;2.85;;
9304;SDS011;4690;52.422;13.486;2023-07-16T08:52:01;3.05;;;2.53;;
9304;SDS011;4690;52.422;13.486;2023-07-16T08:54:27;2.70;;;2.45;;
9304;SDS011;4690;52.422;13.486;2023-07-16T08:56:53;3.95;;;2.50;;
9304;SDS011;4690;52.422;13.486;2023-07-16T08:59:20;3.97;;;2.45;;
9304;SDS011;4690;52.422;13.486;2023-07-16T09:01:47;3.15;;;2.85;;
9304;SDS011;4690;52.422;13.486;2023-07-16T09:04:14;3.83;;;3.00;;
9304;SDS011;4690;52.422;13.486;2023-07-16T09:06:41;3.05;;;2.75;;
9304;SDS011;4690;52.422;13.486;2023-07-16T09:09:07;4.30;;;2.90;;
9304;SDS011;4690;52.422;13.486;2023-07-16T09:11:33;3.08;;;2.65;;
9304;SDS011;4690;52.422;13.486;2023-07-16T09:14:01;4.97;;;3.08;;
9304;SDS011;4690;52.422;13.486;2023-07-16T09:16:32;4.50;;;2.70;;
9304;SDS011;4690;52.422;13.486;2023-07-16T09:19:06;5.15;;;3.00;;
9304;SDS011;4690;52.422;13.486;2023-07-16T09:21:36;3.45;;;2.60;;
9304;SDS011;4690;52.422;13.486;2023-07-16T09:24:05;4.10;;;2.90;;
9304;SDS011;4690;52.422;13.486;2023-07-16T09:26:37;4.78;;;2.65;;
9304;SDS011;4690;52.422;13.486;2023-07-16T09:29:07;4.25;;;2.50;;
9304;SDS011;4690;52.422;13.486;2023-07-16T09:31:33;5.03;;;2.70;;
9304;SDS011;4690;52.422;13.486;2023-07-16T09:33:59;2.88;;;2.60;;
9304;SDS011;4690;52.422;13.486;2023-07-16T09:36:25;4.32;;;3.10;;
9304;SDS011;4690;52.422;13.486;2023-07-16T09:38:52;2.85;;;2.53;;
9304;SDS011;4690;52.422;13.486;2023-07-16T09:41:20;3.10;;;2.58;;
9304;SDS011;4690;52.422;13.486;2023-07-16T09:43:47;3.25;;;2.85;;
9304;SDS011;4690;52.422;13.486;2023-07-16T09:46:12;2.75;;;2.55;;
9304;SDS011;4690;52.422;13.486;2023-07-16T09:48:38;4.70;;;2.90;;
9304;SDS011;4690;52.422;13.486;2023-07-16T09:51:04;4.25;;;2.60;;
9304;SDS011;4690;52.422;13.486;2023-07-16T09:53:37;3.92;;;2.85;;
9304;SDS011;4690;52.422;13.486;2023-07-16T09:56:10;3.10;;;2.80;;
9304;SDS011;4690;52.422;13.486;2023-07-16T09:58:38;4.38;;;2.80;;
9304;SDS011;4690;52.422;13.486;2023-07-16T10:01:05;2.92;;;2.58;;
9304;SDS011;4690;52.422;13.486;2023-07-16T10:03:32;3.75;;;2.85;;
9304;SDS011;4690;52.422;13.486;2023-07-16T10:06:07;4.15;;;2.97;;
9304;SDS011;4690;52.422;13.486;2023-07-16T10:08:34;3.30;;;3.00;;
9304;SDS011;4690;52.422;13.486;2023-07-16T10:11:00;3.80;;;2.95;;
9304;SDS011;4690;52.422;13.486;2023-07-16T10:13:26;3.85;;;3.00;;
9304;SDS011;4690;52.422;13.486;2023-07-16T10:15:55;5.18;;;3.42;;
9304;SDS011;4690;52.422;13.486;2023-07-16T10:18:27;5.07;;;2.88;;
9304;SDS011;4690;52.422;13.486;2023-07-16T10:23:43;4.80;;;2.80;;
9304;SDS011;4690;52.422;13.486;2023-07-16T10:26:10;4.43;;;3.10;;
9304;SDS011;4690;52.422;13.486;2023-07-16T10:28:38;3.75;;;3.28;;
9304;SDS011;4690;52.422;13.486;2023-07-16T10:31:04;2.92;;;2.67;;
9304;SDS011;4690;52.422;13.486;2023-07-16T10:33:41;4.03;;;2.90;;
9304;SDS011;4690;52.422;13.486;2023-07-16T10:36:07;3.95;;;3.17;;
9304;SDS011;4690;52.422;13.486;2023-07-16T10:38:40;4.22;;;2.75;;
9304;SDS011;4690;52.422;13.486;2023-07-16T10:41:09;3.90;;;2.92;;
9304;SDS011;4690;52.422;13.486;2023-07-16T10:43:35;3.35;;;2.88;;
9304;SDS011;4690;52.422;13.486;2023-07-16T10:46:01;3.03;;;2.80;;
9304;SDS011;4690;52.422;13.486;2023-07-16T10:48:28;4.47;;;2.80;;
9304;SDS011;4690;52.422;13.486;2023-07-16T10:50:54;3.95;;;2.90;;
9304;SDS011;4690;52.422;13.486;2023-07-16T10:53:20;2.88;;;2.63;;
9304;SDS011;4690;52.422;13.486;2023-07-16T10:55:46;6.68;;;3.00;;
9304;SDS011;4690;52.422;13.486;2023-07-16T10:58:12;4.00;;;3.00;;
9304;SDS011;4690;52.422;13.486;2023-07-16T11:00:39;3.15;;;2.85;;
9304;SDS011;4690;52.422;13.486;2023-07-16T11:03:05;4.03;;;2.97;;
9304;SDS011;4690;52.422;13.486;2023-07-16T11:05:31;3.22;;;2.95;;
9304;SDS011;4690;52.422;13.486;2023-07-16T11:07:57;3.83;;;3.00;;
9304;SDS011;4690;52.422;13.486;2023-07-16T11:10:23;4.15;;;2.95;;
9304;SDS011;4690;52.422;13.486;2023-07-16T11:12:53;3.15;;;2.65;;
9304;SDS011;4690;52.422;13.486;2023-07-16T11:15:19;5.95;;;2.95;;
9304;SDS011;4690;52.422;13.486;2023-07-16T11:17:59;4.75;;;2.95;;
9304;SDS011;4690;52.422;13.486;2023-07-16T11:20:26;3.28;;;2.97;;
9304;SDS011;4690;52.422;13.486;2023-07-16T11:22:54;4.22;;;2.88;;
9304;SDS011;4690;52.422;13.486;2023-07-16T11:25:24;3.10;;;2.80;;
9304;SDS011;4690;52.422;13.486;2023-07-16T11:27:53;4.60;;;2.83;;
9304;SDS011;4690;52.422;13.486;2023-07-16T11:30:24;3.97;;;3.05;;
9304;SDS011;4690;52.422;13.486;2023-07-16T11:32:52;3.13;;;2.60;;
9304;SDS011;4690;52.422;13.486;2023-07-16T11:35:19;3.33;;;2.92;;
9304;SDS011;4690;52.422;13.486;2023-07-16T11:37:45;2.88;;;2.67;;
9304;SDS011;4690;52.422;13.486;2023-07-16T11:40:17;3.42;;;3.10;;
9304;SDS011;4690;52.422;13.486;2023-07-16T11:42:44;3.78;;;2.60;;
9304;SDS011;4690;52.422;13.486;2023-07-16T11:45:17;4.13;;;2.92;;
9304;SDS011;4690;52.422;13.486;2023-07-16T11:47:51;3.72;;;2.78;;
9304;SDS011;4690;52.422;13.486;2023-07-16T11:50:17;3.92;;;2.85;;
9304;SDS011;4690;52.422;13.486;2023-07-16T11:52:51;6.18;;;3.15;;
9304;SDS011;4690;52.422;13.486;2023-07-16T11:55:19;6.63;;;2.80;;
9304;SDS011;4690;52.422;13.486;2023-07-16T11:57:44;3.33;;;3.03;;
9304;SDS011;4690;52.422;13.486;2023-07-16T12:00:10;3.28;;;2.70;;
9304;SDS011;4690;52.422;13.486;2023-07-16T12:02:37;3.20;;;2.60;;
9304;SDS011;4690;52.422;13.486;2023-07-16T12:05:03;3.60;;;2.65;;
9304;SDS011;4690;52.422;13.486;2023-07-16T12:07:32;5.60;;;2.83;;
9304;SDS011;4690;52.422;13.486;2023-07-16T12:10:02;3.95;;;2.90;;
9304;SDS011;4690;52.422;13.486;2023-07-16T12:12:30;4.32;;;2.85;;
9304;SDS011;4690;52.422;13.486;2023-07-16T12:14:56;3.65;;;3.00;;
9304;SDS011;4690;52.422;13.486;2023-07-16T12:17:22;3.72;;;2.67;;
9304;SDS011;4690;52.422;13.486;2023-07-16T12:19:47;4.65;;;3.00;;
9304;SDS011;4690;52.422;13.486;2023-07-16T12:22:13;2.78;;;2.45;;
9304;SDS011;4690;52.422;13.486;2023-07-16T12:24:43;2.90;;;2.60;;
9304;SDS011;4690;52.422;13.486;2023-07-16T12:27:11;4.95;;;2.63;;
9304;SDS011;4690;52.422;13.486;2023-07-16T12:29:37;5.20;;;2.80;;
9304;SDS011;4690;52.422;13.486;2023-07-16T12:32:02;4.40;;;2.75;;
9304;SDS011;4690;52.422;13.486;2023-07-16T12:34:29;3.08;;;2.78;;
9304;SDS011;4690;52.422;13.486;2023-07-16T12:36:54;6.35;;;2.95;;
9304;SDS011;4690;52.422;13.486;2023-07-16T12:39:20;2.72;;;2.53;;
9304;SDS011;4690;52.422;13.486;2023-07-16T12:41:47;3.42;;;2.70;;
9304;SDS011;4690;52.422;13.486;2023-07-16T12:44:12;2.70;;;2.45;;
9304;SDS011;4690;52.422;13.486;2023-07-16T12:46:38;6.18;;;2.63;;
9304;SDS011;4690;52.422;13.486;2023-07-16T12:49:04;3.10;;;2.80;;
9304;SDS011;4690;52.422;13.486;2023-07-16T12:51:30;2.85;;;2.60;;
9304;SDS011;4690;52.422;13.486;2023-07-16T12:53:55;3.42;;;2.83;;
9304;SDS011;4690;52.422;13.486;2023-07-16T12:56:21;4.72;;;2.63;;
9304;SDS011;4690;52.422;13.486;2023-07-16T12:58:47;5.45;;;2.97;;
9304;SDS011;4690;52.422;13.486;2023-07-16T13:01:13;3.17;;;2.60;;
9304;SDS011;4690;52.422;13.486;2023-07-16T13:03:39;3.55;;;2.30;;
9304;SDS011;4690;52.422;13.486;2023-07-16T13:06:05;4.28;;;3.60;;
9304;SDS011;4690;52.422;13.486;2023-07-16T13:08:30;5.80;;;2.78;;
9304;SDS011;4690;52.422;13.486;2023-07-16T13:10:57;4.60;;;2.67;;
9304;SDS011;4690;52.422;13.486;2023-07-16T13:13:22;4.75;;;2.67;;
9304;SDS011;4690;52.422;13.486;2023-07-16T13:15:48;4.43;;;2.92;;
9304;SDS011;4690;52.422;13.486;2023-07-16T13:18:14;6.53;;;2.60;;
9304;SDS011;4690;52.422;13.486;2023-07-16T13:20:40;3.97;;;2.80;;
9304;SDS011;4690;52.422;13.486;2023-07-16T13:23:06;4.63;;;2.55;;
9304;SDS011;4690;52.422;13.486;2023-07-16T13:25:33;2.63;;;2.42;;
9304;SDS011;4690;52.422;13.486;2023-07-16T13:28:00;4.55;;;2.60;;
9304;SDS011;4690;52.422;13.486;2023-07-16T13:30:28;4.85;;;2.58;;
9304;SDS011;4690;52.422;13.486;2023-07-16T13:32:53;3.97;;;2.55;;
9304;SDS011;4690;52.422;13.486;2023-07-16T13:35:21;3.20;;;2.90;;
9304;SDS011;4690;52.422;13.486;2023-07-16T13:37:48;4.05;;;2.67;;
9304;SDS011;4690;52.422;13.486;2023-07-16T13:40:14;4.65;;;2.72;;
9304;SDS011;4690;52.422;13.486;2023-07-16T13:42:40;3.50;;;2.85;;
9304;SDS011;4690;52.422;13.486;2023-07-16T13:45:06;2.92;;;2.50;;
9304;SDS011;4690;52.422;13.486;2023-07-16T13:47:32;5.75;;;2.70;;
9304;SDS011;4690;52.422;13.486;2023-07-16T13:49:58;3.53;;;2.90;;
9304;SDS011;4690;52.422;13.486;2023-07-16T13:52:23;5.13;;;2.80;;
9304;SDS011;4690;52.422;13.486;2023-07-16T13:54:49;3.47;;;2.50;;
9304;SDS011;4690;52.422;13.486;2023-07-16T13:57:15;5.93;;;2.83;;
9304;SDS011;4690;52.422;13.486;2023-07-16T13:59:41;6.22;;;2.63;;
9304;SDS011;4690;52.422;13.486;2023-07-16T14:02:07;2.97;;;2.53;;
9304;SDS011;4690;52.422;13.486;2023-07-16T14:04:33;4.40;;;2.85;;
9304;SDS011;4690;52.422;13.486;2023-07-16T14:06:59;3.30;;;2.33;;
9304;SDS011;4690;52.422;13.486;2023-07-16T14:09:28;4.15;;;2.55;;
9304;SDS011;4690;52.422;13.486;2023-07-16T14:11:54;2.72;;;2.30;;
9304;SDS011;4690;52.422;13.486;2023-07-16T14:14:20;3.75;;;2.33;;
9304;SDS011;4690;52.422;13.486;2023-07-16T14:16:47;3.33;;;2.60;;
9304;SDS011;4690;52.422;13.486;2023-07-16T14:19:13;5.05;;;2.80;;
9304;SDS011;4690;52.422;13.486;2023-07-16T14:21:39;3.10;;;2.45;;
9304;SDS011;4690;52.422;13.486;2023-07-16T14:24:05;4.35;;;2.92;;
9304;SDS011;4690;52.422;13.486;2023-07-16T14:26:32;6.55;;;2.63;;
9304;SDS011;4690;52.422;13.486;2023-07-16T14:28:58;4.28;;;2.45;;
9304;SDS011;4690;52.422;13.486;2023-07-16T14:31:24;4.00;;;2.38;;
9304;SDS011;4690;52.422;13.486;2023-07-16T14:33:50;4.95;;;3.00;;
9304;SDS011;4690;52.422;13.486;2023-07-16T14:36:16;3.97;;;2.60;;
9304;SDS011;4690;52.422;13.486;2023-07-16T14:38:42;4.43;;;2.45;;
9304;SDS011;4690;52.422;13.486;2023-07-16T14:41:08;4.35;;;2.70;;
9304;SDS011;4690;52.422;13.486;2023-07-16T14:43:35;3.25;;;2.45;;
9304;SDS011;4690;52.422;13.486;2023-07-16T14:46:01;3.13;;;2.72;;
9304;SDS011;4690;52.422;13.486;2023-07-16T14:48:28;3.67;;;2.28;;
9304;SDS011;4690;52.422;13.486;2023-07-16T14:50:57;4.90;;;2.78;;
9304;SDS011;4690;52.422;13.486;2023-07-16T14:53:22;4.53;;;2.63;;
9304;SDS011;4690;52.422;13.486;2023-07-16T14:55:49;2.50;;;2.30;;
9304;SDS011;4690;52.422;13.486;2023-07-16T14:58:17;4.00;;;2.55;;
9304;SDS011;4690;52.422;13.486;2023-07-16T15:00:45;3.03;;;2.63;;
9304;SDS011;4690;52.422;13.486;2023-07-16T15:03:10;4.85;;;2.50;;
9304;SDS011;4690;52.422;13.486;2023-07-16T15:05:36;4.80;;;2.80;;
9304;SDS011;4690;52.422;13.486;2023-07-16T15:08:03;3.38;;;2.35;;
9304;SDS011;4690;52.422;13.486;2023-07-16T15:10:29;4.72;;;2.80;;
9304;SDS011;4690;52.422;13.486;2023-07-16T15:12:55;3.35;;;2.58;;
9304;SDS011;4690;52.422;13.486;2023-07-16T15:15:21;6.03;;;2.67;;